createdAt,value
2024-03-14T00:02:01.476Z,10.40
2024-03-14T00:04:28.515Z,10.40
2024-03-14T00:06:56.048Z,10.30
2024-03-14T00:09:24.056Z,10.40
2024-03-14T00:11:51.050Z,10.40
2024-03-14T00:14:17.857Z,10.40
2024-03-14T00:16:44.572Z,10.40
2024-03-14T00:19:11.368Z,10.40
2024-03-14T00:21:38.440Z,10.40
2024-03-14T00:24:05.491Z,10.40
2024-03-14T00:26:32.910Z,10.40
2024-03-14T00:29:00.076Z,10.40
2024-03-14T00:31:26.957Z,10.40
2024-03-14T00:33:53.673Z,10.40
2024-03-14T00:36:20.465Z,10.40
2024-03-14T00:38:47.795Z,10.40
2024-03-14T00:41:17.522Z,10.40
2024-03-14T00:43:44.202Z,10.40
2024-03-14T00:46:14.990Z,10.50
2024-03-14T00:48:42.141Z,10.40
2024-03-14T00:51:10.830Z,10.40
2024-03-14T00:53:37.516Z,10.40
2024-03-14T00:56:04.274Z,10.40
2024-03-14T00:58:31.815Z,10.30
2024-03-14T01:00:58.462Z,10.00
2024-03-14T01:03:25.154Z,10.00
2024-03-14T01:05:52.237Z,10.10
2024-03-14T01:08:20.223Z,10.20
2024-03-14T01:10:46.945Z,10.10
2024-03-14T01:13:13.728Z,10.10
2024-03-14T01:15:40.438Z,10.00
2024-03-14T01:18:07.431Z,10.00
2024-03-14T01:20:34.812Z,10.10
2024-03-14T01:23:01.662Z,10.20
2024-03-14T01:25:28.270Z,10.10
2024-03-14T01:27:55.023Z,10.00
2024-03-14T01:30:22.427Z,10.00
2024-03-14T01:32:50.871Z,10.00
2024-03-14T01:35:17.988Z,10.10
2024-03-14T01:37:44.694Z,10.10
2024-03-14T01:40:14.453Z,10.10
2024-03-14T01:42:45.287Z,10.10
2024-03-14T01:45:15.812Z,10.00
2024-03-14T01:47:46.105Z,10.00
2024-03-14T01:50:12.765Z,10.10
2024-03-14T01:52:39.675Z,10.10
2024-03-14T01:55:09.640Z,10.20
2024-03-14T01:57:36.610Z,10.20
2024-03-14T02:00:06.184Z,10.20
2024-03-14T02:02:36.466Z,10.20
2024-03-14T02:05:24.957Z,10.10
2024-03-14T02:07:51.749Z,10.10
2024-03-14T02:10:24.964Z,10.10
2024-03-14T02:12:55.079Z,10.20
2024-03-14T02:15:24.683Z,10.20
2024-03-14T02:17:51.942Z,10.20
2024-03-14T02:20:18.779Z,10.10
2024-03-14T02:22:45.675Z,10.10
2024-03-14T02:25:14.371Z,10.10
2024-03-14T02:27:41.466Z,10.20
2024-03-14T02:30:08.737Z,10.20
2024-03-14T02:32:35.495Z,10.20
2024-03-14T02:35:03.724Z,10.20
2024-03-14T02:37:32.241Z,10.20
2024-03-14T02:39:59.233Z,10.20
2024-03-14T02:42:26.172Z,10.20
2024-03-14T02:44:53.020Z,10.20
2024-03-14T02:47:19.621Z,10.20
2024-03-14T02:49:47.034Z,10.20
2024-03-14T02:52:17.013Z,10.10
2024-03-14T02:54:43.725Z,10.10
2024-03-14T02:57:13.019Z,10.00
2024-03-14T02:59:40.160Z,10.10
2024-03-14T03:02:12.320Z,10.20
2024-03-14T03:04:39.923Z,10.20
2024-03-14T03:07:07.255Z,10.20
2024-03-14T03:09:37.169Z,10.20
2024-03-14T03:12:04.195Z,10.20
2024-03-14T03:14:31.055Z,10.20
2024-03-14T03:16:57.923Z,10.20
2024-03-14T03:19:24.610Z,10.30
2024-03-14T03:21:51.299Z,10.30
2024-03-14T03:24:17.981Z,10.40
2024-03-14T03:26:44.662Z,10.30
2024-03-14T03:29:13.783Z,10.30
2024-03-14T03:31:41.093Z,10.30
2024-03-14T03:34:08.569Z,10.20
2024-03-14T03:36:35.337Z,10.30
2024-03-14T03:39:02.053Z,10.30
2024-03-14T03:41:31.053Z,10.30
2024-03-14T03:43:58.171Z,10.30
2024-03-14T03:46:25.181Z,10.30
2024-03-14T03:48:52.656Z,10.30
2024-03-14T03:51:19.871Z,10.20
2024-03-14T03:53:47.441Z,10.10
2024-03-14T03:56:14.957Z,10.20
2024-03-14T03:58:44.371Z,10.30
2024-03-14T04:01:14.556Z,10.30
2024-03-14T04:03:42.634Z,10.30
2024-03-14T04:06:14.043Z,10.30
2024-03-14T04:08:41.393Z,10.40
2024-03-14T04:11:10.754Z,10.40
2024-03-14T04:13:37.362Z,10.40
2024-03-14T04:16:07.434Z,10.40
2024-03-14T04:18:36.232Z,10.40
2024-03-14T04:21:09.726Z,10.40
2024-03-14T04:23:36.897Z,10.50
2024-03-14T04:26:04.154Z,10.50
2024-03-14T04:28:31.300Z,10.40
2024-03-14T04:30:58.059Z,10.50
2024-03-14T04:33:25.026Z,10.40
2024-03-14T04:35:53.612Z,10.40
2024-03-14T04:38:23.187Z,10.40
2024-03-14T04:40:49.794Z,10.40
2024-03-14T04:43:16.840Z,10.40
2024-03-14T04:45:43.584Z,10.40
2024-03-14T04:48:10.772Z,10.40
2024-03-14T04:50:38.157Z,10.30
2024-03-14T04:53:05.762Z,10.30
2024-03-14T04:55:33.501Z,10.20
2024-03-14T04:58:00.585Z,10.30
2024-03-14T05:00:27.667Z,10.30
2024-03-14T05:02:56.587Z,10.40
2024-03-14T05:05:24.198Z,10.50
2024-03-14T05:07:51.434Z,10.40
2024-03-14T05:10:22.759Z,10.50
2024-03-14T05:12:50.539Z,10.50
2024-03-14T05:15:18.032Z,10.50
2024-03-14T05:17:46.372Z,10.50
2024-03-14T05:20:15.874Z,10.50
2024-03-14T05:22:43.320Z,10.50
2024-03-14T05:25:14.347Z,10.50
2024-03-14T05:27:46.474Z,10.50
2024-03-14T05:30:14.514Z,10.60
2024-03-14T05:32:41.529Z,10.60
2024-03-14T05:35:08.487Z,10.60
2024-03-14T05:37:35.119Z,10.60
2024-03-14T05:40:01.890Z,10.60
2024-03-14T05:42:28.958Z,10.60
2024-03-14T05:44:57.181Z,10.60
2024-03-14T05:47:25.437Z,10.60
2024-03-14T05:49:52.591Z,10.70
2024-03-14T05:52:19.873Z,10.70
2024-03-14T05:54:46.507Z,10.70
2024-03-14T05:57:14.606Z,10.70
2024-03-14T05:59:41.352Z,10.80
2024-03-14T06:02:08.468Z,10.80
2024-03-14T06:04:36.141Z,10.80
2024-03-14T06:07:02.817Z,10.70
2024-03-14T06:09:43.401Z,10.70
2024-03-14T06:12:10.995Z,10.80
2024-03-14T06:14:40.236Z,10.80
2024-03-14T06:17:07.426Z,10.80
2024-03-14T06:19:34.193Z,10.80
2024-03-14T06:22:01.191Z,10.80
2024-03-14T06:24:28.265Z,10.80
2024-03-14T06:26:55.208Z,10.80
2024-03-14T06:29:23.930Z,10.80
2024-03-14T06:31:51.881Z,10.70
2024-03-14T06:34:19.198Z,10.80
2024-03-14T06:36:46.459Z,10.90
2024-03-14T06:39:14.001Z,10.90
2024-03-14T06:41:40.734Z,11.00
2024-03-14T06:44:08.680Z,11.00
2024-03-14T06:46:36.107Z,11.00
2024-03-14T06:49:03.645Z,11.00
2024-03-14T06:51:30.967Z,11.00
2024-03-14T06:54:00.498Z,11.00
2024-03-14T06:56:28.781Z,10.90
2024-03-14T06:58:55.496Z,11.00
2024-03-14T07:01:23.059Z,11.00
2024-03-14T07:03:49.905Z,11.00
2024-03-14T07:06:16.542Z,11.10
2024-03-14T07:08:48.069Z,11.10
2024-03-14T07:11:14.821Z,11.20
2024-03-14T07:13:43.542Z,11.20
2024-03-14T07:16:13.026Z,11.20
2024-03-14T07:18:39.885Z,11.30
2024-03-14T07:21:07.068Z,11.30
2024-03-14T07:23:34.750Z,11.30
2024-03-14T07:26:04.033Z,11.30
2024-03-14T07:28:33.344Z,11.30
2024-03-14T07:31:00.651Z,11.40
2024-03-14T07:33:27.665Z,11.40
2024-03-14T07:35:56.419Z,11.30
2024-03-14T07:38:28.941Z,11.40
2024-03-14T07:40:57.057Z,11.40
2024-03-14T07:43:24.003Z,11.40
2024-03-14T07:45:50.839Z,11.40
2024-03-14T07:48:19.796Z,11.40
2024-03-14T07:50:47.160Z,11.40
2024-03-14T07:53:14.183Z,11.40
2024-03-14T07:55:41.712Z,11.50
2024-03-14T07:58:09.501Z,11.50
2024-03-14T08:00:38.100Z,11.50
2024-03-14T08:03:05.477Z,11.50
2024-03-14T08:05:35.360Z,11.50
2024-03-14T08:08:13.873Z,11.50
2024-03-14T08:10:50.195Z,11.60
2024-03-14T08:13:24.053Z,11.70
2024-03-14T08:15:55.621Z,11.60
2024-03-14T08:18:23.501Z,11.70
2024-03-14T08:20:51.568Z,11.70
2024-03-14T08:23:18.765Z,11.70
2024-03-14T08:25:47.218Z,11.70
2024-03-14T08:28:14.339Z,11.70
2024-03-14T08:30:43.789Z,11.70
2024-03-14T08:33:10.533Z,11.70
2024-03-14T08:35:44.531Z,11.70
2024-03-14T08:38:15.455Z,11.80
2024-03-14T08:40:42.931Z,11.80
2024-03-14T08:43:13.489Z,11.90
2024-03-14T08:45:40.964Z,11.90
2024-03-14T08:48:10.916Z,12.00
2024-03-14T08:50:42.678Z,12.10
2024-03-14T08:53:11.229Z,12.10
2024-03-14T08:55:41.177Z,12.10
2024-03-14T08:58:10.141Z,12.20
2024-03-14T09:00:36.903Z,12.20
2024-03-14T09:03:04.610Z,12.20
2024-03-14T09:05:34.106Z,12.30
2024-03-14T09:08:00.897Z,12.40
2024-03-14T09:10:27.517Z,12.50
2024-03-14T09:12:55.902Z,12.60
2024-03-14T09:15:25.343Z,12.70
2024-03-14T09:17:53.017Z,12.80
2024-03-14T09:20:23.121Z,12.80
2024-03-14T09:22:56.433Z,12.90
2024-03-14T09:25:24.144Z,12.90
2024-03-14T09:27:52.565Z,13.00
2024-03-14T09:30:20.080Z,13.10
2024-03-14T09:32:50.002Z,13.10
2024-03-14T09:35:27.921Z,13.20
2024-03-14T09:37:56.110Z,13.30
2024-03-14T09:40:24.240Z,13.40
2024-03-14T09:43:01.667Z,13.40
2024-03-14T09:45:30.276Z,13.50
2024-03-14T09:47:58.102Z,13.40
2024-03-14T09:50:27.383Z,13.50
2024-03-14T09:52:55.100Z,13.60
2024-03-14T09:55:23.917Z,13.60
2024-03-14T09:57:55.174Z,13.60
2024-03-14T10:00:22.806Z,13.60
2024-03-14T10:02:50.438Z,13.70
2024-03-14T10:05:20.740Z,13.70
2024-03-14T10:07:49.286Z,13.80
2024-03-14T10:10:16.870Z,13.80
2024-03-14T10:12:54.015Z,13.90
2024-03-14T10:15:25.134Z,13.90
2024-03-14T10:17:55.568Z,13.90
2024-03-14T10:20:24.365Z,14.00
2024-03-14T10:22:51.131Z,14.00
2024-03-14T10:25:19.355Z,14.00
2024-03-14T10:27:53.620Z,14.20
2024-03-14T10:30:30.366Z,14.20
2024-03-14T10:32:58.041Z,14.20
2024-03-14T10:35:26.869Z,14.20
2024-03-14T10:37:58.625Z,14.30
2024-03-14T10:40:30.787Z,14.30
2024-03-14T10:42:58.330Z,14.30
2024-03-14T10:45:26.431Z,14.40
2024-03-14T10:47:54.308Z,14.50
2024-03-14T10:50:22.568Z,14.40
2024-03-14T10:52:55.974Z,14.40
2024-03-14T10:55:23.120Z,14.40
2024-03-14T10:57:50.249Z,14.40
2024-03-14T11:00:22.444Z,14.40
2024-03-14T11:02:53.136Z,14.40
2024-03-14T11:05:23.839Z,14.50
2024-03-14T11:07:55.129Z,14.60
2024-03-14T11:10:34.996Z,14.60
2024-03-14T11:13:05.172Z,14.60
2024-03-14T11:15:37.755Z,14.70
2024-03-14T11:18:08.678Z,14.70
2024-03-14T11:20:37.328Z,14.80
2024-03-14T11:23:06.483Z,14.80
2024-03-14T11:25:36.738Z,14.90
2024-03-14T11:28:05.468Z,14.90
2024-03-14T11:30:34.418Z,14.90
2024-03-14T11:33:07.309Z,15.00
2024-03-14T11:35:35.519Z,15.00
2024-03-14T11:38:05.540Z,15.00
2024-03-14T11:40:33.853Z,15.00
2024-03-14T11:43:01.484Z,14.90
2024-03-14T11:45:28.529Z,14.90
2024-03-14T11:47:55.891Z,15.00
2024-03-14T11:50:23.923Z,15.10
2024-03-14T11:52:55.638Z,15.20
2024-03-14T11:55:23.801Z,15.00
2024-03-14T11:57:50.564Z,15.00
2024-03-14T12:00:27.454Z,14.90
2024-03-14T12:02:54.809Z,14.90
2024-03-14T12:05:24.455Z,14.80
2024-03-14T12:07:53.544Z,14.70
2024-03-14T12:10:20.476Z,14.70
2024-03-14T12:12:47.114Z,14.70
2024-03-14T12:15:14.722Z,14.80
2024-03-14T12:17:41.578Z,14.90
2024-03-14T12:20:11.938Z,15.00
2024-03-14T12:22:43.862Z,15.30
2024-03-14T12:25:14.506Z,15.30
2024-03-14T12:27:41.632Z,15.30
2024-03-14T12:30:09.573Z,15.30
2024-03-14T12:32:38.416Z,15.20
2024-03-14T12:35:10.919Z,15.10
2024-03-14T12:37:37.998Z,15.00
2024-03-14T12:40:09.030Z,14.90
2024-03-14T12:42:37.663Z,14.80
2024-03-14T12:45:06.026Z,14.80
2024-03-14T12:47:35.121Z,14.80
2024-03-14T12:50:02.499Z,14.80
2024-03-14T12:52:29.182Z,14.80
2024-03-14T12:54:55.856Z,14.90
2024-03-14T12:57:23.833Z,15.00
2024-03-14T12:59:51.085Z,15.00
2024-03-14T13:02:21.662Z,15.10
2024-03-14T13:04:48.803Z,15.20
2024-03-14T13:07:20.097Z,15.30
2024-03-14T13:10:11.583Z,15.30
2024-03-14T13:12:39.714Z,15.20
2024-03-14T13:15:13.194Z,15.20
2024-03-14T13:17:40.288Z,15.20
2024-03-14T13:20:16.470Z,15.10
2024-03-14T13:22:44.223Z,15.10
2024-03-14T13:25:12.537Z,15.00
2024-03-14T13:27:40.640Z,15.00
2024-03-14T13:30:10.186Z,15.00
2024-03-14T13:32:38.912Z,15.00
2024-03-14T13:35:12.153Z,14.90
2024-03-14T13:37:38.889Z,14.90
2024-03-14T13:42:42.879Z,14.80
2024-03-14T13:45:10.913Z,14.80
2024-03-14T13:47:39.286Z,14.70
2024-03-14T13:50:10.762Z,14.70
2024-03-14T13:52:42.504Z,14.70
2024-03-14T13:55:26.187Z,14.70
2024-03-14T13:57:53.568Z,14.70
2024-03-14T14:00:48.088Z,14.70
2024-03-14T14:03:15.816Z,14.70
2024-03-14T14:05:42.615Z,14.60
2024-03-14T14:08:10.587Z,14.60
2024-03-14T14:10:38.130Z,14.60
2024-03-14T14:13:06.088Z,14.60
2024-03-14T14:15:37.704Z,14.60
2024-03-14T14:18:06.900Z,14.50
2024-03-14T14:20:36.422Z,14.50
2024-03-14T14:23:04.366Z,14.50
2024-03-14T14:25:31.128Z,14.60
2024-03-14T14:27:57.918Z,14.50
2024-03-14T14:30:25.046Z,14.50
2024-03-14T14:32:54.046Z,14.50
2024-03-14T14:35:23.714Z,14.50
2024-03-14T14:37:51.198Z,14.60
2024-03-14T14:40:18.086Z,14.60
2024-03-14T14:42:45.734Z,14.70
2024-03-14T14:45:13.749Z,14.70
2024-03-14T14:47:43.086Z,14.60
2024-03-14T14:50:10.706Z,14.60
2024-03-14T14:52:38.316Z,14.60
2024-03-14T14:55:05.805Z,14.70
2024-03-14T14:57:35.839Z,14.70
2024-03-14T15:00:02.746Z,14.70
2024-03-14T15:02:29.630Z,14.70
2024-03-14T15:04:56.267Z,14.70
2024-03-14T15:07:23.733Z,14.70
2024-03-14T15:09:52.143Z,14.70
2024-03-14T15:12:19.131Z,14.70
2024-03-14T15:14:46.290Z,14.70
2024-03-14T15:17:17.353Z,14.70
2024-03-14T15:19:44.833Z,14.80
2024-03-14T15:22:12.106Z,14.80
2024-03-14T15:24:39.014Z,14.80
2024-03-14T15:27:08.504Z,14.80
2024-03-14T15:29:36.908Z,14.70
2024-03-14T15:32:05.165Z,14.70
2024-03-14T15:34:35.273Z,14.70
2024-03-14T15:37:01.996Z,14.60
2024-03-14T15:39:31.617Z,14.60
2024-03-14T15:42:00.712Z,14.60
2024-03-14T15:44:32.682Z,14.60
2024-03-14T15:46:59.480Z,14.60
2024-03-14T15:49:26.973Z,14.60
2024-03-14T15:51:54.382Z,14.50
2024-03-14T15:54:23.818Z,14.50
2024-03-14T15:56:51.511Z,14.40
2024-03-14T15:59:18.515Z,14.30
2024-03-14T16:01:45.559Z,14.30
2024-03-14T16:04:13.330Z,14.20
2024-03-14T16:06:40.262Z,14.20
2024-03-14T16:09:09.409Z,14.10
2024-03-14T16:11:38.656Z,14.10
2024-03-14T16:14:05.807Z,14.10
2024-03-14T16:16:35.790Z,14.10
2024-03-14T16:19:06.266Z,14.00
2024-03-14T16:21:33.308Z,14.00
2024-03-14T16:24:05.911Z,14.00
2024-03-14T16:26:36.006Z,14.00
2024-03-14T16:29:03.691Z,13.90
2024-03-14T16:31:31.718Z,13.90
2024-03-14T16:33:59.047Z,13.90
2024-03-14T16:36:26.135Z,13.90
2024-03-14T16:38:53.458Z,13.80
2024-03-14T16:41:20.169Z,13.80
2024-03-14T16:43:47.011Z,13.80
2024-03-14T16:46:15.845Z,13.80
2024-03-14T16:48:42.755Z,13.70
2024-03-14T16:51:13.503Z,13.70
2024-03-14T16:53:42.349Z,13.70
2024-03-14T16:56:12.995Z,13.70
2024-03-14T16:58:40.049Z,13.60
2024-03-14T17:01:07.326Z,13.60
2024-03-14T17:03:34.761Z,13.60
2024-03-14T17:06:05.286Z,13.60
2024-03-14T17:08:32.531Z,13.60
2024-03-14T17:10:59.505Z,13.50
2024-03-14T17:13:29.476Z,13.50
2024-03-14T17:15:56.606Z,13.50
2024-03-14T17:18:23.422Z,13.50
2024-03-14T17:20:55.257Z,13.50
2024-03-14T17:23:24.289Z,13.40
2024-03-14T17:25:51.345Z,13.50
2024-03-14T17:28:18.550Z,13.80
2024-03-14T17:30:45.663Z,13.70
2024-03-14T17:33:13.276Z,13.60
2024-03-14T17:35:40.128Z,13.60
2024-03-14T17:38:07.043Z,13.60
2024-03-14T17:40:33.668Z,13.60
2024-03-14T17:43:00.284Z,13.60
2024-03-14T17:45:29.168Z,13.50
2024-03-14T17:47:57.130Z,13.50
2024-03-14T17:50:32.958Z,13.50
2024-03-14T17:52:59.826Z,13.40
2024-03-14T17:55:27.237Z,13.40
2024-03-14T17:57:55.099Z,13.30
2024-03-14T18:00:22.107Z,13.30
2024-03-14T18:02:49.005Z,13.30
2024-03-14T18:05:15.914Z,13.30
2024-03-14T18:07:46.825Z,13.20
2024-03-14T18:10:17.417Z,13.20
2024-03-14T18:12:45.562Z,13.20
2024-03-14T18:15:17.638Z,13.20
2024-03-14T18:17:44.861Z,13.20
2024-03-14T18:20:13.722Z,13.20
2024-03-14T18:22:44.229Z,13.10
2024-03-14T18:25:11.331Z,13.10
2024-03-14T18:27:38.592Z,13.10
2024-03-14T18:30:13.752Z,13.10
2024-03-14T18:32:44.328Z,13.10
2024-03-14T18:35:17.663Z,13.10
2024-03-14T18:37:45.895Z,13.10
2024-03-14T18:40:12.673Z,13.10
2024-03-14T18:42:40.466Z,13.10
2024-03-14T18:45:07.670Z,13.10
2024-03-14T18:47:35.902Z,13.10
2024-03-14T18:50:04.387Z,13.00
2024-03-14T18:52:31.172Z,13.00
2024-03-14T18:55:00.013Z,13.00
2024-03-14T18:57:28.140Z,13.00
2024-03-14T18:59:55.523Z,13.00
2024-03-14T19:02:22.754Z,13.00
2024-03-14T19:04:50.363Z,13.00
2024-03-14T19:07:19.250Z,12.90
2024-03-14T19:09:46.429Z,13.00
2024-03-14T19:12:13.530Z,12.90
2024-03-14T19:14:42.306Z,12.90
2024-03-14T19:17:12.620Z,12.90
2024-03-14T19:19:40.319Z,12.90
2024-03-14T19:22:07.421Z,12.90
2024-03-14T19:24:34.624Z,12.80
2024-03-14T19:27:02.657Z,12.80
2024-03-14T19:29:31.739Z,12.70
2024-03-14T19:31:59.395Z,12.70
2024-03-14T19:34:29.352Z,12.70
2024-03-14T19:36:57.089Z,12.70
2024-03-14T19:39:24.556Z,12.70
2024-03-14T19:41:53.812Z,12.70
2024-03-14T19:44:20.405Z,12.70
2024-03-14T19:46:47.255Z,12.70
2024-03-14T19:49:14.328Z,12.70
2024-03-14T19:51:41.196Z,12.60
2024-03-14T19:54:08.218Z,12.60
2024-03-14T19:56:38.682Z,12.60
2024-03-14T19:59:05.741Z,12.60
2024-03-14T20:01:33.634Z,12.60
2024-03-14T20:04:01.434Z,12.60
2024-03-14T20:06:28.323Z,12.50
2024-03-14T20:08:58.372Z,12.50
2024-03-14T20:11:25.445Z,12.40
2024-03-14T20:13:52.500Z,12.40
2024-03-14T20:16:19.442Z,12.40
2024-03-14T20:18:46.731Z,12.40
2024-03-14T20:21:14.520Z,12.40
2024-03-14T20:23:42.213Z,12.30
2024-03-14T20:26:10.547Z,12.30
2024-03-14T20:28:37.903Z,12.30
2024-03-14T20:31:05.787Z,12.30
2024-03-14T20:33:33.022Z,12.30
2024-03-14T20:36:00.285Z,12.30
2024-03-14T20:38:29.059Z,12.20
2024-03-14T20:40:57.998Z,12.20
2024-03-14T20:43:24.740Z,12.20
2024-03-14T20:45:51.512Z,12.10
2024-03-14T20:48:19.307Z,12.10
2024-03-14T20:50:46.203Z,12.10
2024-03-14T20:53:13.309Z,12.00
2024-03-14T20:55:51.323Z,12.00
2024-03-14T20:58:21.045Z,12.00
2024-03-14T21:00:48.165Z,12.00
2024-03-14T21:03:15.154Z,12.00
2024-03-14T21:05:42.890Z,12.00
2024-03-14T21:08:11.621Z,12.00
2024-03-14T21:10:40.313Z,11.90
2024-03-14T21:13:12.444Z,11.90
2024-03-14T21:15:39.693Z,11.80
2024-03-14T21:18:12.462Z,11.80
2024-03-14T21:20:39.990Z,11.80
2024-03-14T21:23:08.938Z,11.80
2024-03-14T21:25:36.062Z,11.70
2024-03-14T21:28:03.127Z,11.70
2024-03-14T21:30:32.065Z,11.70
2024-03-14T21:32:58.870Z,11.70
2024-03-14T21:35:25.585Z,11.70
2024-03-14T21:37:52.882Z,11.70
2024-03-14T21:40:23.725Z,11.60
2024-03-14T21:42:51.789Z,11.60
2024-03-14T21:45:20.398Z,11.60
2024-03-14T21:47:50.058Z,11.60
2024-03-14T21:50:17.968Z,11.60
2024-03-14T21:52:46.243Z,11.60
2024-03-14T21:55:15.231Z,11.60
2024-03-14T21:57:44.964Z,11.60
2024-03-14T22:00:19.207Z,11.60
2024-03-14T22:02:51.268Z,11.50
2024-03-14T22:05:20.327Z,11.50
2024-03-14T22:07:47.063Z,11.50
2024-03-14T22:10:13.901Z,11.50
2024-03-14T22:12:41.620Z,11.40
2024-03-14T22:15:09.027Z,11.40
2024-03-14T22:17:36.431Z,11.40
2024-03-14T22:20:09.043Z,11.30
2024-03-14T22:22:40.794Z,11.40
2024-03-14T22:25:11.100Z,11.40
2024-03-14T22:27:37.984Z,11.40
2024-03-14T22:30:04.936Z,11.40
2024-03-14T22:32:32.108Z,11.30
2024-03-14T22:34:59.160Z,11.30
2024-03-14T22:37:25.870Z,11.30
2024-03-14T22:39:53.397Z,11.30
2024-03-14T22:42:20.690Z,11.30
2024-03-14T22:44:49.286Z,11.30
2024-03-14T22:47:17.374Z,11.30
2024-03-14T22:49:45.184Z,11.30
2024-03-14T22:52:12.127Z,11.30
2024-03-14T22:54:39.303Z,11.30
2024-03-14T22:57:07.986Z,11.20
2024-03-14T22:59:34.844Z,11.30
2024-03-14T23:02:01.645Z,11.20
2024-03-14T23:04:30.556Z,11.30
2024-03-14T23:07:00.480Z,11.10
2024-03-14T23:09:27.586Z,11.10
2024-03-14T23:11:54.284Z,11.20
2024-03-14T23:14:21.205Z,11.20
2024-03-14T23:16:47.931Z,11.20
2024-03-14T23:19:14.582Z,11.20
2024-03-14T23:21:41.803Z,11.10
2024-03-14T23:24:08.883Z,11.00
2024-03-14T23:26:35.605Z,11.00
2024-03-14T23:29:05.001Z,10.90
2024-03-14T23:31:32.184Z,11.00
2024-03-14T23:33:59.958Z,10.90
2024-03-14T23:36:27.940Z,11.00
2024-03-14T23:38:55.044Z,11.00
2024-03-14T23:41:22.344Z,11.00
2024-03-14T23:43:53.118Z,11.00
2024-03-14T23:46:21.402Z,10.80
2024-03-14T23:48:48.639Z,10.70
2024-03-14T23:51:15.707Z,10.80
2024-03-14T23:53:43.245Z,10.90
2024-03-14T23:56:10.351Z,10.90
2024-03-14T23:58:37.140Z,10.90
